Latest Weather Observations for Western Sydney Airport

IDN60901

Issued at 6:02 pm EST Saturday 5 September 2026 (issued every 10 minutes, with the page automatically refreshed every 10 minutes)

About weather observations | Map of Sydney area stations | Latest observations for Sydney area | Other Formats
Station Details ID: 067121 Name: WESTERN SYDNEY AIRPORT Lat: -33.88 Lon: 150.71 Height: 100.93 m
Data from the previous 72 hours. | See also: Recent months for locations in New South Wales
Date/Time
EST
Temp
°C
App
Temp
°C
Dew
Point
°C
Rel
Hum
%
Delta-T
°C
Wind Press
QNH
hPa
Press
MSL
hPa
Rain since
9am
mm
Dir  Spd
km/h
Gust
km/h
Spd
kts
Gust
kts
05/06:00pm 19.5 15.1 13.0 66 3.7 N 28 41 15 22 1008.2 1008.1 2.6
05/05:30pm 18.9 15.5 14.8 77 2.4 N 26 33 14 18 1008.5 1008.4 2.6
05/05:00pm 19.1 19.3 15.8 81 2.0 NW 9 15 5 8 1010.1 1009.9 2.6
05/04:30pm 19.1 18.8 16.5 85 1.6 NW 13 20 7 11 1009.7 1009.5 2.6
05/04:14pm 18.3 16.3 15.6 84 1.6 W 20 30 11 16 1010.1 1009.9 2.6
05/04:07pm 18.1 15.0 15.7 86 1.4 W 26 41 14 22 1010.0 1009.8 2.4
05/04:01pm 18.2 13.1 15.8 86 1.4 W 37 76 20 41 1010.3 1010.1 2.0
05/04:00pm 18.0 11.7 15.6 86 1.4 W 43 91 23 49 1010.3 1010.1 2.0
05/03:58pm 18.2 11.0 15.8 86 1.4 W 48 91 26 49 1010.6 1010.5 1.8
05/03:54pm 18.9 11.6 15.6 81 2.0 W 48 91 26 49 1010.4 1010.2 0.8
05/03:53pm 19.3 12.2 15.0 76 2.5 W 46 91 25 49 1010.4 1010.2 0.6
05/03:50pm 24.8 17.3 10.7 41 7.9 W 41 91 22 49 1009.3 1009.2 0.0
05/03:49pm 27.2 19.6 9.1 32 10.0 W 39 61 21 33 1009.3 1009.2 0.0
05/03:30pm 28.6 21.3 8.8 29 10.9 WNW 37 61 20 33 1007.0 1006.9 0.0
05/03:00pm 29.4 20.8 9.0 28 11.4 WNW 44 82 24 44 1006.6 1006.5 0.0
05/02:30pm 30.6 21.3 7.7 24 12.6 WNW 46 83 25 45 1006.2 1006.1 0.0
05/02:13pm 31.7 23.5 6.7 21 13.6 WNW 39 70 21 38 1005.9 1005.8 0.0
05/02:03pm 32.2 25.8 7.1 21 13.7 WNW 30 63 16 34 1005.4 1005.3 0.0
05/02:00pm 32.2 25.8 7.1 21 13.8 WNW 30 44 16 24 1005.8 1005.7 0.0
05/01:30pm 31.5 23.4 7.2 22 13.3 NW 39 56 21 30 1005.9 1005.8 0.0
05/01:21pm 31.6 22.6 7.3 22 13.3 NW 44 65 24 35 1006.3 1006.2 0.0
05/01:11pm 31.3 22.3 6.4 21 13.4 NW 43 78 23 42 1006.0 1005.9 0.0
05/01:06pm 31.8 25.5 7.5 22 13.4 NW 30 52 16 28 1006.7 1006.6 0.0
05/01:00pm 31.6 25.8 8.0 23 13.1 WNW 28 44 15 24 1007.0 1006.9 0.0
05/12:59pm 31.7 25.9 8.0 23 13.1 WNW 28 44 15 24 1007.0 1006.9 0.0
05/12:54pm 30.6 24.9 8.3 25 12.3 WNW 28 50 15 27 1007.2 1007.1 0.0
05/12:48pm 30.9 25.6 8.6 25 12.4 NNW 26 50 14 27 1007.4 1007.3 0.0
05/12:44pm 31.1 26.9 8.2 24 12.7 N 20 46 11 25 1007.4 1007.3 0.0
05/12:30pm 29.1 25.6 8.7 28 11.3 N 17 28 9 15 1008.3 1008.2 0.0
05/12:11pm 29.1 25.3 9.8 30 10.9 N 20 30 11 16 1009.0 1008.9 0.0
05/12:01pm 29.0 23.8 10.2 31 10.7 N 28 46 15 25 1009.2 1009.1 0.0
05/12:00pm 28.2 22.2 8.5 29 10.8 N 30 46 16 25 1009.2 1009.1 0.0
05/11:30am 27.2 21.2 8.6 31 10.2 N 30 41 16 22 1009.9 1009.7 0.0
05/11:00am 26.0 22.8 11.4 40 8.3 NNE 19 24 10 13 1011.2 1011.1 0.0
05/10:30am 23.5 20.5 10.6 44 7.2 NNE 17 26 9 14 1012.1 1012.0 0.0
05/10:00am 22.4 19.7 10.2 46 6.7 NE 15 19 8 10 1013.2 1013.1 0.0
05/09:30am 20.7 17.5 9.9 50 5.8 N 17 22 9 12 1013.9 1013.8 0.0
05/09:00am 18.9 15.4 10.2 57 4.7 N 19 24 10 13 1014.6 1014.5 0.0
05/08:30am 15.8 13.4 10.1 69 3.0 NNE 13 15 7 8 1014.9 1014.8 0.0
05/08:00am 14.3 12.3 10.1 76 2.2 N 11 15 6 8 1015.5 1015.4 0.0
05/07:30am 12.1 10.5 8.9 81 1.6 WSW 7 9 4 5 1015.7 1015.6 0.0
05/07:00am 10.6 9.6 9.0 90 0.8 SSW 4 9 2 5 1015.6 1015.5 0.0
05/06:30am 9.8 7.3 8.1 89 0.8 SW 11 15 6 8 1015.8 1015.7 0.0
05/06:00am 9.6 6.7 8.2 91 0.7 SW 13 17 7 9 1015.8 1015.7 0.0
05/05:30am 10.2 8.0 8.0 86 1.1 WSW 9 11 5 6 1015.7 1015.6 0.0
05/05:00am 9.9 8.2 8.2 89 0.8 SW 7 9 4 5 1015.8 1015.7 0.0
05/04:30am 10.1 8.4 8.4 89 0.8 SSW 7 7 4 4 1015.7 1015.6 0.0
05/04:00am 10.1 7.6 8.4 89 0.8 SW 11 15 6 8 1016.0 1015.9 0.0
05/03:30am 11.3 9.8 8.3 82 1.5 W 6 9 3 5 1015.9 1015.8 0.0
05/03:00am 12.1 12.0 9.3 83 1.4 CALM 0 0 0 0 1015.8 1015.7 0.0
05/02:30am 11.6 11.3 8.8 83 1.4 CALM 0 0 0 0 1016.6 1016.5 0.0
05/02:00am 11.5 10.4 8.4 81 1.5 ENE 4 9 2 5 1017.0 1016.9 0.0
05/01:30am 12.3 10.8 8.6 78 1.8 NW 6 7 3 4 1017.3 1017.2 0.0
05/01:00am 11.8 9.8 8.5 80 1.6 NNW 9 11 5 6 1017.8 1017.7 0.0
05/12:30am 13.5 12.1 9.4 76 2.1 NW 7 11 4 6 1018.0 1017.9 0.0
05/12:00am 13.2 10.9 9.1 76 2.1 NW 11 13 6 7 1018.1 1018.0 0.0
 
Date/Time
EST
Temp
°C
App
Temp
°C
Dew
Point
°C
Rel
Hum
%
Delta-T
°C
Wind Press
QNH
hPa
Press
MSL
hPa
Rain since
9am
mm
Dir  Spd
km/h
Gust
km/h
Spd
kts
Gust
kts
04/11:30pm 13.0 10.6 8.7 75 2.2 NW 11 13 6 7 1018.3 1018.2 0.0
04/11:00pm 15.2 13.9 10.0 71 2.7 NNE 7 9 4 5 1018.5 1018.4 0.0
04/10:30pm 15.3 13.7 10.3 72 2.6 NNE 9 11 5 6 1018.9 1018.9 0.0
04/10:00pm 15.4 14.0 9.5 68 3.1 NNE 7 9 4 5 1019.2 1019.2 0.0
04/09:30pm 16.4 16.4 9.8 65 3.5 CALM 0 0 0 0 1019.1 1019.1 0.0
04/09:00pm 17.0 15.6 9.7 62 3.8 SSE 7 9 4 5 1019.1 1019.1 0.0
04/08:30pm 16.7 15.1 10.1 65 3.5 S 9 11 5 6 1018.8 1018.7 0.0
04/08:00pm 16.5 14.0 9.7 64 3.6 S 13 15 7 8 1018.5 1018.4 0.0
04/07:30pm 16.4 13.2 8.4 59 4.1 SW 15 19 8 10 1018.3 1018.2 0.0
04/07:00pm 19.0 16.6 6.8 45 6.1 NW 9 15 5 8 1017.7 1017.6 0.0
04/06:30pm 20.2 18.2 6.2 40 7.0 NNE 6 7 3 4 1017.2 1017.1 0.0
04/06:00pm 20.8 18.6 6.4 39 7.3 NNE 7 7 4 4 1017.0 1016.9 0.0
04/05:30pm 21.1 19.0 6.6 39 7.4 NNE 7 9 4 5 1016.7 1016.6 0.0
04/05:00pm 21.5 18.6 6.6 38 7.6 NNE 11 13 6 7 1016.4 1016.3 0.0
04/04:30pm 22.5 20.3 6.3 35 8.3 NNE 7 13 4 7 1016.3 1016.2 0.0
04/04:00pm 22.8 20.2 6.1 34 8.5 NNE 9 15 5 8 1016.3 1016.2 0.0
04/03:30pm 22.9 19.8 7.1 36 8.2 ENE 13 19 7 10 1016.3 1016.2 0.0
04/03:00pm 22.8 20.2 6.1 34 8.5 NNE 9 15 5 8 1016.5 1016.4 0.0
04/02:30pm 22.9 19.8 7.1 36 8.2 ENE 13 17 7 9 1016.7 1016.6 0.0
04/02:00pm 22.8 19.2 6.6 35 8.3 NNE 15 20 8 11 1017.2 1017.1 0.0
04/01:30pm 22.9 20.5 7.1 36 8.2 N 9 17 5 9 1017.6 1017.5 0.0
04/01:00pm 22.7 20.8 7.7 38 7.9 N 7 13 4 7 1018.3 1018.2 0.0
04/12:30pm 21.7 18.4 6.4 37 7.8 WSW 13 20 7 11 1018.8 1018.7 0.0
04/12:00pm 21.2 18.3 6.7 39 7.4 SW 11 17 6 9 1019.4 1019.4 0.0
04/11:30am 20.6 16.0 6.5 40 7.1 SSW 20 28 11 15 1020.2 1020.1 0.0
04/11:00am 20.2 15.1 5.8 39 7.2 SSW 22 30 12 16 1020.8 1020.7 0.0
04/10:30am 19.6 15.4 5.6 40 6.9 SW 17 24 9 13 1020.9 1020.8 0.0
04/10:00am 19.8 15.7 6.2 41 6.8 SW 17 24 9 13 1021.3 1021.2 0.0
04/09:30am 18.8 13.8 6.6 45 6.1 SW 22 35 12 19 1021.5 1021.4 0.0
04/09:00am 18.2 14.9 7.9 51 5.3 SW 15 22 8 12 1021.9 1021.8 0.0
04/08:30am 16.1 13.1 7.8 58 4.2 WSW 13 19 7 10 1022.1 1022.0 0.0
04/08:00am 14.5 11.9 7.8 64 3.3 W 11 15 6 8 1022.0 1021.9 0.0
04/07:30am 12.7 9.9 7.0 68 2.8 WNW 11 13 6 7 1021.8 1021.7 0.0
04/07:00am 10.8 6.7 6.4 74 2.1 W 17 20 9 11 1021.5 1021.4 0.0
04/06:30am 10.4 6.6 5.8 73 2.1 WNW 15 19 8 10 1021.3 1021.2 0.0
04/06:00am 10.0 6.2 5.8 75 1.9 WNW 15 19 8 10 1021.2 1021.1 0.0
04/05:30am 11.0 7.2 5.7 70 2.5 WNW 15 17 8 9 1020.8 1020.7 0.0
04/05:00am 10.8 7.8 5.8 71 2.3 WNW 11 15 6 8 1020.6 1020.5 0.0
04/04:30am 11.3 9.2 5.6 68 2.6 WNW 6 9 3 5 1020.4 1020.3 0.0
04/04:00am 11.7 9.5 6.0 68 2.7 NW 7 9 4 5 1020.0 1019.9 0.0
04/03:30am 11.8 10.2 6.3 69 2.6 N 4 6 2 3 1019.6 1019.6 0.0
04/03:00am 11.7 10.1 6.2 69 2.6 NW 4 7 2 4 1019.5 1019.5 0.0
04/02:30am 12.9 11.6 5.8 62 3.4 W 2 7 1 4 1019.8 1019.7 0.0
04/02:00am 13.2 10.5 5.6 60 3.6 SW 9 13 5 7 1020.0 1019.9 0.0
04/01:30am 12.5 11.2 5.9 64 3.1 NE 2 7 1 4 1020.2 1020.1 0.0
04/01:00am 14.3 12.0 5.9 57 4.0 WSW 7 9 4 5 1020.3 1020.2 0.0
04/12:30am 14.5 12.5 6.1 57 4.0 WSW 6 7 3 4 1020.2 1020.1 0.0
04/12:00am 13.8 11.6 6.2 60 3.6 ESE 7 11 4 6 1020.3 1020.2 0.0
 
Date/Time
EST
Temp
°C
App
Temp
°C
Dew
Point
°C
Rel
Hum
%
Delta-T
°C
Wind Press
QNH
hPa
Press
MSL
hPa
Rain since
9am
mm
Dir  Spd
km/h
Gust
km/h
Spd
kts
Gust
kts
03/11:30pm 14.3 11.0 6.2 58 3.9 WSW 13 24 7 13 1020.0 1019.9 0.0
03/11:00pm 13.8 9.1 6.2 60 3.6 WSW 20 26 11 14 1019.6 1019.6 0.0
03/10:30pm 14.0 9.0 6.6 61 3.6 WSW 22 26 12 14 1019.3 1019.3 0.0
03/10:00pm 13.8 9.8 6.7 62 3.4 SW 17 19 9 10 1019.1 1019.1 0.0
03/09:30pm 14.7 10.2 6.3 57 4.1 SW 19 22 10 12 1019.0 1019.0 0.0
03/09:00pm 15.7 11.7 4.7 48 5.2 SW 15 17 8 9 1018.4 1018.3 0.0
03/08:30pm 17.8 13.1 5.1 43 6.1 WSW 19 28 10 15 1017.8 1017.7 0.0
03/08:00pm 17.7 13.0 3.2 38 6.7 W 17 22 9 12 1017.2 1017.1 0.0
03/07:30pm 18.8 13.4 2.2 33 7.6 WNW 20 24 11 13 1016.3 1016.2 0.0
03/07:00pm 19.3 15.8 1.3 30 8.1 W 9 11 5 6 1015.7 1015.6 0.0
03/06:30pm 19.5 16.0 1.5 30 8.2 W 9 11 5 6 1015.1 1015.0 0.0
03/06:00pm 18.7 13.4 2.1 33 7.6 SW 19 20 10 11 1014.3 1014.2 0.0
03/05:30pm 20.8 15.3 2.1 29 8.7 WSW 20 28 11 15 1013.7 1013.6 0.0
03/05:00pm 22.4 17.1 2.0 26 9.6 SW 19 30 10 16 1013.0 1012.9 0.0
03/04:30pm 24.2 19.4 2.4 24 10.5 W 17 26 9 14 1012.4 1012.3 0.0
03/04:00pm 24.7 19.1 3.4 25 10.5 WNW 22 32 12 17 1012.1 1012.0 0.0
03/03:30pm 25.2 20.1 3.2 24 10.8 W 19 28 10 15 1011.9 1011.8 0.0
03/03:00pm 25.1 20.2 4.3 26 10.4 WNW 19 28 10 15 1011.7 1011.6 0.0
03/02:30pm 24.9 20.8 4.1 26 10.4 WNW 15 28 8 15 1011.5 1011.4 0.0
03/02:00pm 25.2 20.4 5.4 28 10.1 WNW 20 32 11 17 1011.2 1011.1 0.0
03/01:30pm 25.2 20.1 5.9 29 10.0 WSW 22 32 12 17 1011.1 1011.0 0.0
03/01:00pm 24.8 18.9 5.6 29 9.8 WSW 26 37 14 20 1011.0 1010.9 0.0
03/12:30pm 25.6 19.9 6.8 30 9.9 WSW 26 39 14 21 1011.0 1010.9 0.0
03/12:00pm 24.8 18.4 7.0 32 9.3 W 30 44 16 24 1011.0 1010.9 0.0
03/11:49am 25.3 19.4 7.4 32 9.5 W 28 43 15 23 1011.0 1010.9 0.0
03/11:31am 25.0 18.2 6.7 31 9.6 WSW 32 50 17 27 1010.9 1010.8 0.0
03/11:30am 25.1 18.2 7.3 32 9.4 WSW 33 50 18 27 1011.0 1010.9 0.0
03/11:00am 25.2 18.5 7.3 32 9.5 W 32 43 17 23 1010.6 1010.5 0.0
03/10:42am 25.2 17.8 8.2 34 9.1 WSW 37 48 20 26 1010.5 1010.3 0.0
03/10:30am 25.3 18.2 7.9 33 9.3 WSW 35 56 19 30 1010.3 1010.1 0.0
03/10:20am 25.2 17.3 7.8 33 9.3 WSW 39 59 21 32 1010.2 1010.0 0.0
03/10:10am 25.2 18.3 7.3 32 9.5 WSW 33 54 18 29 1010.1 1009.9 0.0
03/10:00am 25.1 20.1 8.1 34 9.1 WSW 24 35 13 19 1009.9 1009.7 0.0
03/09:30am 24.0 21.7 11.7 46 7.0 S 15 22 8 12 1009.8 1009.6 0.0
03/09:00am 22.8 20.4 11.5 49 6.4 NNW 15 20 8 11 1009.6 1009.4 0.0
03/08:30am 20.2 16.6 11.9 59 4.6 N 22 26 12 14 1009.3 1009.2 0.0
03/08:00am 19.0 16.8 12.0 64 3.9 N 15 19 8 10 1009.4 1009.3 0.0
03/07:30am 17.5 16.4 11.8 69 3.1 N 9 11 5 6 1009.6 1009.4 0.0
03/07:00am 16.8 14.7 11.1 69 3.1 NW 13 17 7 9 1009.6 1009.4 0.0
03/06:30am 15.8 13.7 11.0 73 2.6 NNW 13 17 7 9 1009.3 1009.2 0.0
03/06:00am 15.5 13.3 10.7 73 2.6 NW 13 15 7 8 1009.3 1009.2 0.0
03/05:30am 13.4 11.9 10.6 83 1.5 N 9 11 5 6 1009.3 1009.2 0.0
03/05:00am 13.8 10.9 11.0 83 1.5 NNE 17 22 9 12 1009.3 1009.2 0.0
03/04:30am 14.3 12.8 10.5 78 2.0 NNW 9 13 5 7 1010.4 1010.2 0.0
03/04:00am 14.0 10.4 10.6 80 1.8 WSW 20 22 11 12 1011.5 1011.4 0.0
03/03:30am 17.1 14.9 9.3 60 4.1 N 11 13 6 7 1010.6 1010.5 0.0
03/03:00am 17.3 14.7 9.2 59 4.2 NNE 13 15 7 8 1010.4 1010.2 0.0
03/02:30am 18.1 14.8 9.5 57 4.5 NNE 17 20 9 11 1011.3 1011.2 0.0
03/02:00am 17.9 14.5 9.3 57 4.5 NNE 17 19 9 10 1011.7 1011.6 0.0
03/01:30am 17.6 15.0 9.5 59 4.3 N 13 17 7 9 1012.0 1011.9 0.0
03/01:00am 18.0 15.9 9.6 58 4.4 NNW 11 15 6 8 1012.1 1012.0 0.0
03/12:30am 18.5 15.6 9.6 56 4.7 N 15 19 8 10 1012.4 1012.3 0.0
03/12:00am 17.2 14.2 9.1 59 4.2 NNW 15 17 8 9 1012.8 1012.7 0.0
 
Date/Time
EST
Temp
°C
App
Temp
°C
Dew
Point
°C
Rel
Hum
%
Delta-T
°C
Wind Press
QNH
hPa
Press
MSL
hPa
Rain since
9am
mm
Dir  Spd
km/h
Gust
km/h
Spd
kts
Gust
kts
02/11:30pm 15.3 12.6 9.0 66 3.2 NNW 13 17 7 9 1013.0 1012.9 0.0
02/11:00pm 15.9 14.3 8.2 60 3.9 SW 6 7 3 4 1013.5 1013.4 0.0
02/10:30pm 18.2 16.2 8.7 54 4.9 N 9 11 5 6 1013.7 1013.6 0.0
02/10:00pm 17.7 15.6 8.3 54 4.8 NNW 9 13 5 7 1014.1 1014.0 0.0
02/09:30pm 17.9 15.3 7.9 52 5.1 NNW 11 13 6 7 1014.1 1014.0 0.0
02/09:00pm 18.9 15.6 8.0 49 5.6 NW 15 17 8 9 1014.2 1014.1 0.0
02/08:30pm 18.8 15.7 7.3 47 5.8 NW 13 15 7 8 1014.3 1014.2 0.0
02/08:00pm 19.0 15.5 7.4 47 5.9 NNW 15 17 8 9 1014.1 1014.0 0.0
02/07:30pm 20.3 17.7 7.7 44 6.5 NW 11 13 6 7 1014.2 1014.1 0.0
02/07:00pm 22.5 18.2 7.1 37 8.0 WNW 19 32 10 17 1013.9 1013.8 0.0
02/06:30pm 22.3 18.8 7.3 38 7.8 WNW 15 22 8 12 1013.6 1013.5 0.0

Latest Capital City Observations: Canberra | Sydney | Melbourne | Brisbane | Adelaide | Perth | Hobart | Darwin

Other formats

Comma delimited format used in spreadsheet applications
http://www.bom.gov.au/fwo/IDN60901/IDN60901.94149.axf

JavaScript Object Notation format (JSON) in row-major order
http://www.bom.gov.au/fwo/IDN60901/IDN60901.94149.json

Data quality

Most of these data are generated automatically and are frequently updated. Quality checks on data are not normally performed. It is possible for incorrect values to appear. Refer to information at About Latest Weather Observations and please check the disclaimer before using these data.